Time;durP1;ratioP1;P1;durP2;ratioP2;P2;SDS_P1;SDS_P2;PMS_P1;PMS_P2;Temp;Humidity;BMP_temperature;BMP_pressure;BME280_temperature;BME280_humidity;BME280_pressure;Samples;Min_cycle;Max_cycle;Signal;HPM_P1;HPM_P2
2020/12/17 00:00:38;;;;;;;10.60;6.10;;;9.10;99.90;;;;;;4950824;28;20354;-92
2020/12/17 00:03:04;;;;;;;8.93;5.43;;;9.10;99.90;;;;;;4958570;28;20277;-90
2020/12/17 00:05:30;;;;;;;7.67;5.37;;;9.10;99.90;;;;;;5019222;28;20570;-91
2020/12/17 00:07:56;;;;;;;10.03;5.70;;;9.10;99.90;;;;;;5024887;28;20187;-91
2020/12/17 00:10:21;;;;;;;6.90;5.77;;;9.10;99.90;;;;;;5006824;28;20285;-91
2020/12/17 00:12:49;;;;;;;8.00;5.63;;;9.10;99.90;;;;;;5006021;28;20221;-94
2020/12/17 00:15:16;;;;;;;8.57;6.97;;;9.10;99.90;;;;;;5022825;28;20301;-92
2020/12/17 00:17:47;;;;;;;6.87;5.10;;;9.10;99.90;;;;;;5006704;28;22437;-93
2020/12/17 00:20:15;;;;;;;8.20;6.00;;;9.10;99.90;;;;;;5025443;28;20183;-92
2020/12/17 00:22:41;;;;;;;8.17;5.23;;;9.10;99.90;;;;;;5022694;28;20746;-92
2020/12/17 00:25:09;;;;;;;8.53;5.30;;;9.10;99.90;;;;;;5021735;28;20223;-91
2020/12/17 00:27:37;;;;;;;7.50;5.77;;;9.10;99.90;;;;;;5005540;28;20218;-92
2020/12/17 00:30:07;;;;;;;5.63;4.83;;;9.10;99.90;;;;;;5022253;28;20225;-92
2020/12/17 00:32:33;;;;;;;5.17;3.77;;;9.10;99.90;;;;;;5021756;28;20554;-91
2020/12/17 00:34:59;;;;;;;7.17;4.27;;;9.10;99.90;;;;;;5040996;28;21093;-91
2020/12/17 00:37:35;;;;;;;7.03;5.40;;;9.10;99.90;;;;;;5005241;28;20222;-93
2020/12/17 00:40:03;;;;;;;9.60;6.13;;;9.10;99.90;;;;;;5006712;28;20222;-92
2020/12/17 00:42:29;;;;;;;8.33;5.33;;;9.10;99.90;;;;;;5023252;28;20283;-93
2020/12/17 00:44:55;;;;;;;11.53;5.43;;;9.10;99.90;;;;;;5005679;28;20226;-90
2020/12/17 00:47:20;;;;;;;7.70;6.50;;;9.10;99.90;;;;;;5008137;28;20715;-92
2020/12/17 00:49:46;;;;;;;5.90;4.63;;;9.10;99.90;;;;;;5022489;28;20222;-91
2020/12/17 00:52:12;;;;;;;5.57;4.63;;;9.10;99.90;;;;;;5022047;28;20225;-91
2020/12/17 00:54:41;;;;;;;7.20;6.53;;;9.10;99.90;;;;;;5023232;28;21182;-92
2020/12/17 00:57:07;;;;;;;8.90;6.37;;;9.00;99.90;;;;;;4989624;28;20222;-92
2020/12/17 00:59:33;;;;;;;5.73;5.10;;;9.10;99.90;;;;;;5022107;28;20187;-91
2020/12/17 01:01:59;;;;;;;8.80;4.50;;;9.10;99.90;;;;;;5023845;28;20935;-91
2020/12/17 01:04:25;;;;;;;6.23;4.97;;;9.10;99.90;;;;;;5022001;28;20312;-91
2020/12/17 01:06:51;;;;;;;10.10;6.90;;;9.10;99.90;;;;;;5005867;28;20223;-92
2020/12/17 01:09:16;;;;;;;8.97;5.90;;;9.20;99.90;;;;;;4988280;28;20229;-91
2020/12/17 01:11:42;;;;;;;8.90;5.43;;;9.10;99.90;;;;;;5021412;28;20190;-92
2020/12/17 01:14:11;;;;;;;6.37;4.73;;;9.10;99.90;;;;;;5021839;28;20333;-91
2020/12/17 01:16:37;;;;;;;5.43;4.53;;;9.20;99.90;;;;;;5016813;28;20858;-94
2020/12/17 01:19:02;;;;;;;7.50;5.27;;;9.20;99.90;;;;;;5017217;28;20218;-91
2020/12/17 01:21:28;;;;;;;7.83;5.87;;;9.30;99.90;;;;;;5000439;28;20681;-91
2020/12/17 01:23:54;;;;;;;7.93;6.03;;;9.20;99.90;;;;;;5017649;28;20721;-92
2020/12/17 01:26:20;;;;;;;8.47;4.83;;;9.30;99.90;;;;;;5000277;28;20278;-92
2020/12/17 01:28:45;;;;;;;7.00;4.63;;;9.30;99.90;;;;;;5000024;28;20229;-92
2020/12/17 01:31:13;;;;;;;10.70;4.73;;;9.30;99.90;;;;;;5016075;28;21156;-93
2020/12/17 01:33:40;;;;;;;7.17;5.80;;;9.30;99.90;;;;;;5000603;28;20276;-91
2020/12/17 01:36:07;;;;;;;8.53;5.70;;;9.30;99.90;;;;;;5018159;28;20219;-93
2020/12/17 01:38:37;;;;;;;6.97;5.03;;;9.30;99.90;;;;;;5019490;28;20183;-92
2020/12/17 01:41:04;;;;;;;7.03;5.43;;;9.30;99.90;;;;;;5006715;28;20332;-94
2020/12/17 01:43:44;;;;;;;7.87;5.30;;;9.30;99.90;;;;;;5004966;28;20232;-91
2020/12/17 01:46:12;;;;;;;8.73;5.10;;;9.30;99.90;;;;;;5020102;28;20237;-89
2020/12/17 01:48:38;;;;;;;8.30;4.20;;;9.30;99.90;;;;;;5021377;28;20266;-90
2020/12/17 01:51:05;;;;;;;6.00;4.77;;;9.20;99.90;;;;;;5003255;28;20219;-91
2020/12/17 01:53:41;;;;;;;7.80;4.97;;;9.30;99.90;;;;;;5037882;28;20207;-90
2020/12/17 01:56:20;;;;;;;9.97;4.87;;;9.20;99.90;;;;;;5005968;28;20642;-88
2020/12/17 01:59:07;;;;;;;6.53;4.47;;;9.10;99.90;;;;;;5021082;28;20221;-90
2020/12/17 02:01:33;;;;;;;11.03;5.90;;;9.20;99.90;;;;;;5020702;28;20222;-89
2020/12/17 02:04:02;;;;;;;8.03;4.27;;;9.10;99.90;;;;;;5003763;28;21171;-90
2020/12/17 02:06:28;;;;;;;9.37;6.67;;;9.10;99.90;;;;;;5022082;28;20218;-89
2020/12/17 02:08:54;;;;;;;8.73;5.97;;;9.10;99.90;;;;;;5018909;28;20267;-91
2020/12/17 02:11:20;;;;;;;9.40;5.23;;;9.10;99.90;;;;;;5021584;28;20195;-90
2020/12/17 02:13:46;;;;;;;7.43;5.03;;;9.10;99.90;;;;;;5003690;28;20214;-91
2020/12/17 02:16:14;;;;;;;7.03;3.80;;;9.10;99.90;;;;;;5019916;28;20225;-91
2020/12/17 02:18:39;;;;;;;5.00;4.60;;;9.10;99.90;;;;;;5003102;28;20222;-91
2020/12/17 02:21:06;;;;;;;7.07;5.33;;;9.10;99.90;;;;;;5020470;28;20564;-90
2020/12/17 02:23:33;;;;;;;6.53;5.13;;;9.10;99.90;;;;;;5002446;28;20305;-88
2020/12/17 02:25:59;;;;;;;6.43;4.07;;;9.10;99.90;;;;;;5004788;28;20612;-90
2020/12/17 02:28:24;;;;;;;5.43;3.90;;;9.10;99.90;;;;;;5002928;28;20237;-88
2020/12/17 02:30:50;;;;;;;4.83;4.23;;;9.10;99.90;;;;;;5003927;28;20692;-89
2020/12/17 02:33:17;;;;;;;6.60;4.40;;;9.10;99.90;;;;;;5021141;28;20583;-90
2020/12/17 02:35:43;;;;;;;6.47;3.67;;;9.10;99.90;;;;;;5004077;28;20206;-90
2020/12/17 02:38:09;;;;;;;7.07;4.33;;;9.10;99.90;;;;;;5022840;28;20186;-90
2020/12/17 02:40:36;;;;;;;7.73;5.07;;;9.20;99.90;;;;;;5019838;28;20719;-90
2020/12/17 02:43:02;;;;;;;7.87;4.50;;;9.10;99.90;;;;;;5020962;28;20242;-90
2020/12/17 02:45:28;;;;;;;6.10;4.73;;;9.20;99.90;;;;;;5003488;28;20226;-91
2020/12/17 02:47:54;;;;;;;4.50;3.93;;;9.10;99.90;;;;;;5003783;28;20736;-91
2020/12/17 02:50:19;;;;;;;4.67;4.20;;;9.10;99.90;;;;;;5020768;28;20196;-91
2020/12/17 02:52:46;;;;;;;7.37;5.07;;;9.10;99.90;;;;;;5019480;28;20230;-90
2020/12/17 02:55:12;;;;;;;5.30;4.03;;;9.10;99.90;;;;;;5020393;28;20220;-90
2020/12/17 02:57:37;;;;;;;5.20;4.70;;;9.10;99.90;;;;;;5003877;28;20548;-91
2020/12/17 03:00:09;;;;;;;4.40;4.00;;;9.10;99.90;;;;;;5003894;28;20699;-92
2020/12/17 03:02:35;;;;;;;9.50;4.63;;;9.10;99.90;;;;;;5018997;28;20190;-91
2020/12/17 03:05:01;;;;;;;6.00;4.13;;;9.10;99.90;;;;;;4968807;28;20206;-90
2020/12/17 03:07:27;;;;;;;7.37;5.23;;;9.10;99.90;;;;;;4967448;28;20246;-92
2020/12/17 03:09:53;;;;;;;4.90;3.23;;;9.10;99.90;;;;;;4966183;28;20322;-90
2020/12/17 03:12:18;;;;;;;5.93;3.83;;;9.10;99.90;;;;;;4966754;28;20215;-90
2020/12/17 03:14:44;;;;;;;5.33;3.60;;;9.10;99.90;;;;;;4983365;28;20187;-90
2020/12/17 03:17:10;;;;;;;10.73;5.73;;;9.10;99.90;;;;;;4984918;28;20198;-92
2020/12/17 03:19:36;;;;;;;6.83;5.17;;;9.10;99.90;;;;;;4966233;28;20219;-91
2020/12/17 03:22:02;;;;;;;4.80;4.13;;;9.00;99.90;;;;;;4981869;28;20227;-92
2020/12/17 03:24:27;;;;;;;9.10;5.63;;;9.00;99.90;;;;;;4949859;28;20693;-91
2020/12/17 03:26:53;;;;;;;4.43;3.70;;;9.00;99.90;;;;;;4967077;28;21287;-93
2020/12/17 03:29:19;;;;;;;8.23;5.07;;;9.00;99.90;;;;;;4969719;28;20195;-92
2020/12/17 03:31:44;;;;;;;5.93;5.23;;;9.00;99.90;;;;;;4966525;28;20230;-90
2020/12/17 03:34:10;;;;;;;6.60;5.60;;;9.00;99.90;;;;;;4982579;28;20634;-90
2020/12/17 03:36:36;;;;;;;8.73;4.53;;;9.00;99.90;;;;;;4966810;28;20242;-89
2020/12/17 03:39:02;;;;;;;9.37;4.60;;;9.00;99.90;;;;;;4967960;28;20238;-89
2020/12/17 03:41:28;;;;;;;5.73;4.70;;;9.00;99.90;;;;;;4970059;28;20293;-91
2020/12/17 03:43:54;;;;;;;7.13;4.83;;;9.00;99.90;;;;;;4972344;28;20876;-90
2020/12/17 03:46:19;;;;;;;5.97;4.93;;;8.90;99.90;;;;;;4955069;28;20227;-91
2020/12/17 03:48:45;;;;;;;7.20;4.53;;;8.90;99.90;;;;;;4986312;28;20215;-89
2020/12/17 03:51:11;;;;;;;9.50;5.93;;;9.00;99.90;;;;;;4971517;28;21018;-90
2020/12/17 03:53:37;;;;;;;4.03;3.63;;;9.00;99.90;;;;;;4987109;28;20712;-91
2020/12/17 03:56:02;;;;;;;5.90;3.97;;;9.00;99.90;;;;;;4955757;28;20244;-91
2020/12/17 03:58:28;;;;;;;3.97;3.43;;;9.00;99.90;;;;;;4985943;28;20227;-89
2020/12/17 04:00:54;;;;;;;4.27;2.70;;;8.90;99.90;;;;;;4952460;28;20226;-91
2020/12/17 04:03:20;;;;;;;7.30;6.40;;;8.90;99.90;;;;;;4975583;28;20242;-92
2020/12/17 04:05:45;;;;;;;9.40;5.83;;;8.90;99.90;;;;;;4999903;28;20240;-93
2020/12/17 04:08:11;;;;;;;5.50;4.90;;;8.90;99.90;;;;;;5004587;28;20960;-90
2020/12/17 04:10:37;;;;;;;5.30;4.80;;;8.90;99.90;;;;;;5003354;28;20265;-91
2020/12/17 04:13:03;;;;;;;6.60;4.77;;;8.90;99.90;;;;;;5019063;28;20222;-92
2020/12/17 04:15:28;;;;;;;7.43;6.20;;;8.90;99.90;;;;;;5001988;28;20766;-90
2020/12/17 04:17:54;;;;;;;8.37;4.93;;;8.90;99.90;;;;;;5005044;28;20225;-89
2020/12/17 04:20:20;;;;;;;6.07;5.37;;;8.90;99.90;;;;;;5007251;28;20285;-92
2020/12/17 04:22:45;;;;;;;6.37;5.70;;;8.90;99.90;;;;;;5020859;28;20230;-89
2020/12/17 04:25:11;;;;;;;7.93;5.10;;;8.90;99.90;;;;;;5003652;28;20218;-92
2020/12/17 04:27:37;;;;;;;8.20;5.17;;;8.80;99.90;;;;;;5020706;28;20215;-89
2020/12/17 04:30:06;;;;;;;9.10;5.33;;;8.90;99.90;;;;;;4996355;28;20630;-90
2020/12/17 04:32:32;;;;;;;7.27;4.40;;;8.90;99.90;;;;;;5022207;28;20202;-92
2020/12/17 04:34:57;;;;;;;8.40;5.63;;;8.80;99.90;;;;;;5024545;28;20202;-90
2020/12/17 04:37:23;;;;;;;6.27;5.20;;;8.80;99.90;;;;;;5004894;28;20214;-91
2020/12/17 04:39:49;;;;;;;10.63;6.23;;;8.80;99.90;;;;;;5021794;28;20597;-91
2020/12/17 04:42:15;;;;;;;6.00;5.40;;;8.80;99.90;;;;;;5006144;28;20305;-90
2020/12/17 04:44:44;;;;;;;9.07;7.03;;;8.80;99.90;;;;;;5021287;28;20997;-91
2020/12/17 04:47:18;;;;;;;8.17;6.23;;;8.80;99.90;;;;;;5005540;28;20727;-91
2020/12/17 04:49:50;;;;;;;8.77;5.60;;;8.80;99.90;;;;;;5021442;28;20209;-90
2020/12/17 04:52:18;;;;;;;8.27;5.77;;;8.80;99.90;;;;;;5021688;28;20301;-89
2020/12/17 04:54:44;;;;;;;7.27;5.80;;;8.80;99.90;;;;;;5004065;28;20360;-91
2020/12/17 04:57:15;;;;;;;10.90;6.20;;;8.80;99.90;;;;;;5022162;28;20249;-90
2020/12/17 04:59:47;;;;;;;8.60;5.40;;;8.80;99.90;;;;;;5019891;28;20187;-90
2020/12/17 05:02:16;;;;;;;8.00;6.20;;;8.80;99.90;;;;;;5023627;28;20179;-90
2020/12/17 05:04:43;;;;;;;5.47;4.77;;;8.70;99.90;;;;;;5020918;28;20241;-91
2020/12/17 05:07:12;;;;;;;8.27;5.57;;;8.80;99.90;;;;;;5021603;28;20214;-91
2020/12/17 05:09:40;;;;;;;10.77;6.57;;;8.80;99.90;;;;;;5020336;28;20215;-90
2020/12/17 05:12:07;;;;;;;9.63;6.60;;;8.80;99.90;;;;;;5019988;28;20729;-92
2020/12/17 05:14:33;;;;;;;9.33;6.07;;;8.70;99.90;;;;;;5021292;28;20194;-90
2020/12/17 05:17:03;;;;;;;6.17;5.57;;;8.80;99.90;;;;;;5040310;28;20182;-89
2020/12/17 05:19:29;;;;;;;8.43;6.67;;;8.70;99.90;;;;;;5020129;28;20305;-90
2020/12/17 05:21:56;;;;;;;8.30;5.90;;;8.70;99.90;;;;;;5018574;28;20687;-91
2020/12/17 05:24:23;;;;;;;10.60;6.73;;;8.80;99.90;;;;;;5017281;28;20597;-90
2020/12/17 05:26:50;;;;;;;12.70;6.90;;;8.70;99.90;;;;;;5017815;28;20222;-90
2020/12/17 05:29:17;;;;;;;9.20;6.53;;;8.70;99.90;;;;;;5020107;28;20187;-91
2020/12/17 05:31:43;;;;;;;7.10;5.97;;;8.70;99.90;;;;;;5018364;28;20226;-90
2020/12/17 05:34:10;;;;;;;7.20;5.93;;;8.70;99.90;;;;;;5020348;28;20242;-89
2020/12/17 05:36:36;;;;;;;9.70;6.83;;;8.70;99.90;;;;;;5020451;28;20671;-90
2020/12/17 05:39:16;;;;;;;10.03;6.90;;;8.70;99.90;;;;;;5019927;28;20253;-90
2020/12/17 05:41:44;;;;;;;9.63;7.30;;;8.70;99.90;;;;;;5018427;28;20186;-90
2020/12/17 05:44:12;;;;;;;10.97;7.03;;;8.70;99.90;;;;;;5020399;28;20224;-89
2020/12/17 05:46:39;;;;;;;10.17;6.77;;;8.70;99.90;;;;;;5019304;28;20230;-90
2020/12/17 05:49:13;;;;;;;11.60;6.47;;;8.70;99.90;;;;;;5013185;28;20225;-89
2020/12/17 05:51:39;;;;;;;11.03;7.20;;;8.70;99.90;;;;;;5019663;28;20222;-90
2020/12/17 05:54:09;;;;;;;11.63;6.93;;;8.70;99.90;;;;;;5004793;28;20218;-90
2020/12/17 05:56:36;;;;;;;19.47;11.87;;;8.70;99.90;;;;;;5002836;28;20194;-91
2020/12/17 05:59:04;;;;;;;18.13;11.60;;;8.70;99.90;;;;;;5020902;28;20241;-90
2020/12/17 06:01:31;;;;;;;10.83;8.63;;;8.60;99.90;;;;;;5018508;28;20218;-91
2020/12/17 06:03:57;;;;;;;8.67;7.53;;;8.60;99.90;;;;;;5018280;28;20356;-89
2020/12/17 06:06:24;;;;;;;15.93;12.37;;;8.50;99.90;;;;;;5020261;28;20237;-89
2020/12/17 06:08:53;;;;;;;9.73;6.73;;;8.50;99.90;;;;;;5002150;28;20273;-90
2020/12/17 06:11:23;;;;;;;16.80;12.87;;;8.50;99.90;;;;;;5019897;28;20187;-90
2020/12/17 06:13:55;;;;;;;14.93;12.10;;;8.50;99.90;;;;;;5013574;28;20223;-89
2020/12/17 06:16:22;;;;;;;9.40;7.03;;;8.50;99.90;;;;;;5015432;28;20226;-90
2020/12/17 06:18:56;;;;;;;12.20;8.23;;;8.50;99.90;;;;;;4998141;28;20267;-89
2020/12/17 06:21:26;;;;;;;10.10;7.93;;;8.50;99.90;;;;;;5017405;28;20210;-90
2020/12/17 06:23:57;;;;;;;12.33;6.43;;;8.60;99.90;;;;;;5015822;28;20595;-90
2020/12/17 06:26:24;;;;;;;8.90;6.67;;;8.60;99.90;;;;;;5032913;28;20237;-89
2020/12/17 06:28:52;;;;;;;8.83;6.03;;;8.60;99.90;;;;;;4998214;28;20215;-89
2020/12/17 06:31:19;;;;;;;8.40;6.27;;;8.50;99.90;;;;;;5014427;28;20226;-91
2020/12/17 06:33:46;;;;;;;12.53;6.50;;;8.50;99.90;;;;;;5016314;28;20305;-89
2020/12/17 06:36:40;;;;;;;7.03;4.73;;;8.50;99.90;;;;;;5017642;28;20218;-90
2020/12/17 06:39:06;;;;;;;8.67;6.27;;;8.50;99.90;;;;;;5009378;28;21074;-90
2020/12/17 06:41:33;;;;;;;14.43;7.53;;;8.50;99.90;;;;;;5019253;28;20198;-89
2020/12/17 06:43:58;;;;;;;8.97;6.03;;;8.50;99.90;;;;;;5020012;28;20267;-87
2020/12/17 06:46:36;;;;;;;10.20;7.30;;;8.50;99.90;;;;;;5002353;28;20226;-88
2020/12/17 06:49:07;;;;;;;7.13;6.17;;;8.50;99.90;;;;;;5002337;28;20250;-88
2020/12/17 06:51:37;;;;;;;8.70;5.40;;;8.50;99.90;;;;;;5035579;28;20309;-87
2020/12/17 06:54:06;;;;;;;6.17;4.97;;;8.50;99.90;;;;;;5019674;28;20980;-89
2020/12/17 06:56:37;;;;;;;9.63;6.97;;;8.50;99.90;;;;;;5020542;28;20209;-90
2020/12/17 06:59:13;;;;;;;6.67;5.73;;;8.50;99.90;;;;;;5004965;28;20225;-92
2020/12/17 07:01:40;;;;;;;6.53;5.37;;;8.50;99.90;;;;;;5015576;28;20427;-90
2020/12/17 07:04:06;;;;;;;8.30;6.67;;;8.40;99.90;;;;;;4989211;28;20226;-91
2020/12/17 07:06:32;;;;;;;11.50;6.73;;;8.50;99.90;;;;;;4993663;28;20348;-90
2020/12/17 07:08:59;;;;;;;8.30;5.20;;;8.50;99.90;;;;;;4989331;28;20881;-91
2020/12/17 07:11:36;;;;;;;9.13;6.07;;;8.40;99.90;;;;;;4991738;28;20199;-90
2020/12/17 07:14:06;;;;;;;10.63;5.80;;;8.40;99.90;;;;;;5014475;28;20221;-88
2020/12/17 07:16:35;;;;;;;11.23;5.87;;;8.40;99.90;;;;;;5017359;28;20229;-91
2020/12/17 07:19:21;;;;;;;2.97;2.77;;;8.40;99.90;;;;;;5007564;28;20687;-90
2020/12/17 07:22:01;;;;;;;6.10;4.47;;;8.40;99.90;;;;;;5001636;28;20284;-91
2020/12/17 07:24:30;;;;;;;7.40;5.57;;;8.40;99.90;;;;;;5018598;28;20249;-91
2020/12/17 07:27:05;;;;;;;6.67;5.20;;;8.40;99.90;;;;;;5019434;28;20227;-89
2020/12/17 07:29:52;;;;;;;9.20;4.90;;;8.40;99.90;;;;;;5017376;28;20306;-89
2020/12/17 07:32:37;;;;;;;6.73;4.33;;;8.40;99.90;;;;;;5035606;28;20312;-89
2020/12/17 07:35:06;;;;;;;6.27;4.43;;;8.40;99.90;;;;;;4995341;28;20214;-90
2020/12/17 07:37:53;;;;;;;6.47;3.93;;;8.40;99.90;;;;;;5018958;28;20378;-90
2020/12/17 07:40:43;;;;;;;13.00;9.70;;;8.40;99.90;;;;;;5016523;28;21237;-89
2020/12/17 07:43:09;;;;;;;8.43;6.43;;;8.40;99.90;;;;;;5001141;28;20771;-88
2020/12/17 07:45:51;;;;;;;5.60;5.07;;;8.40;99.90;;;;;;5016428;28;20226;-88
2020/12/17 07:48:43;;;;;;;13.80;10.43;;;8.40;99.90;;;;;;5018046;28;20251;-87
2020/12/17 07:51:18;;;;;;;8.37;7.20;;;8.40;99.90;;;;;;5016852;28;20286;-89
2020/12/17 07:53:46;;;;;;;8.50;7.53;;;8.40;99.90;;;;;;5016448;28;20201;-87
2020/12/17 07:56:12;;;;;;;19.07;12.87;;;8.40;99.90;;;;;;5019823;28;20186;-90
2020/12/17 07:58:39;;;;;;;9.33;5.83;;;8.50;99.90;;;;;;5016341;28;20218;-89
2020/12/17 08:01:07;;;;;;;7.93;5.70;;;8.40;99.90;;;;;;5017579;28;20211;-88
2020/12/17 08:03:44;;;;;;;9.10;5.73;;;8.40;99.90;;;;;;4991076;28;20231;-89
2020/12/17 08:06:12;;;;;;;9.50;6.77;;;8.50;99.90;;;;;;4982503;28;20222;-88
2020/12/17 08:08:38;;;;;;;11.93;7.10;;;8.50;99.90;;;;;;4982272;28;20246;-89
2020/12/17 08:11:06;;;;;;;13.40;6.83;;;8.50;99.90;;;;;;4983919;28;20199;-88
2020/12/17 08:13:32;;;;;;;12.47;6.60;;;8.50;99.90;;;;;;4981145;28;20219;-90
2020/12/17 08:15:59;;;;;;;10.10;7.17;;;8.60;99.90;;;;;;4998264;28;21227;-87
2020/12/17 08:18:30;;;;;;;15.77;8.67;;;8.60;99.90;;;;;;4966317;28;20310;-87
2020/12/17 08:21:14;;;;;;;12.07;6.43;;;8.60;99.90;;;;;;4981292;28;20222;-89
2020/12/17 08:23:41;;;;;;;15.13;9.23;;;8.60;99.90;;;;;;4996995;28;20239;-90
2020/12/17 08:26:15;;;;;;;13.33;9.77;;;8.60;99.90;;;;;;4983955;28;20183;-89
2020/12/17 08:28:42;;;;;;;15.33;8.57;;;8.60;99.90;;;;;;4985011;28;20223;-89
2020/12/17 08:31:14;;;;;;;14.00;7.80;;;8.70;99.90;;;;;;4968709;28;20223;-88
2020/12/17 08:33:47;;;;;;;12.67;8.03;;;8.70;99.90;;;;;;4984682;28;20226;-89
2020/12/17 08:36:19;;;;;;;18.87;8.00;;;8.70;99.90;;;;;;5002732;28;20257;-89
2020/12/17 08:39:00;;;;;;;9.63;7.67;;;8.70;99.90;;;;;;4984906;28;20215;-89
2020/12/17 08:41:33;;;;;;;13.83;8.00;;;8.70;99.90;;;;;;4986524;28;20191;-89
2020/12/17 08:44:02;;;;;;;12.80;7.63;;;8.70;99.90;;;;;;4984098;28;20231;-89
2020/12/17 08:46:36;;;;;;;19.37;10.40;;;8.70;99.90;;;;;;4985780;28;20227;-87
2020/12/17 08:49:04;;;;;;;16.00;9.47;;;8.80;99.90;;;;;;4985783;28;20227;-92
2020/12/17 08:51:31;;;;;;;16.70;9.47;;;8.90;99.90;;;;;;4985619;28;20235;-91
2020/12/17 08:53:57;;;;;;;14.13;9.07;;;8.90;99.90;;;;;;4953120;28;20264;-92
2020/12/17 08:56:23;;;;;;;11.53;7.17;;;9.00;99.90;;;;;;4953469;28;20983;-91
2020/12/17 08:58:53;;;;;;;14.80;9.27;;;9.00;99.90;;;;;;4984299;28;20211;-91
2020/12/17 09:01:24;;;;;;;15.27;9.83;;;9.00;99.90;;;;;;4983599;28;20251;-92
2020/12/17 09:03:50;;;;;;;11.23;7.47;;;9.00;99.90;;;;;;4999303;28;20257;-92
2020/12/17 09:06:21;;;;;;;6.40;4.10;;;8.90;99.90;;;;;;5026311;28;20215;-90
2020/12/17 09:08:47;;;;;;;14.40;8.23;;;8.90;99.90;;;;;;5036915;28;22086;-91
2020/12/17 09:11:36;;;;;;;11.93;9.63;;;8.90;99.90;;;;;;5004478;28;20553;-91
2020/12/17 09:14:08;;;;;;;14.90;10.13;;;8.90;99.90;;;;;;5021014;28;20252;-90
2020/12/17 09:16:35;;;;;;;10.87;7.00;;;9.00;99.90;;;;;;5019153;28;20292;-92
2020/12/17 09:19:06;;;;;;;13.70;8.40;;;9.10;99.90;;;;;;5018602;28;20222;-92
2020/12/17 09:21:58;;;;;;;11.73;8.93;;;9.20;99.90;;;;;;5019820;28;20272;-92
2020/12/17 09:24:47;;;;;;;11.27;7.23;;;9.30;99.90;;;;;;5018809;28;20233;-92
2020/12/17 09:27:18;;;;;;;5.00;4.27;;;9.30;99.90;;;;;;5020882;28;20215;-92
2020/12/17 09:29:58;;;;;;;11.23;7.20;;;9.20;99.90;;;;;;5003451;28;20674;-93
2020/12/17 09:32:24;;;;;;;10.13;6.07;;;9.20;99.90;;;;;;5021471;28;20247;-92
2020/12/17 09:35:07;;;;;;;7.50;5.63;;;9.10;99.90;;;;;;5018136;28;20270;-92
2020/12/17 09:37:33;;;;;;;14.67;5.93;;;8.90;99.90;;;;;;5035468;28;20345;-92
2020/12/17 09:39:59;;;;;;;11.33;7.47;;;8.80;99.90;;;;;;5020346;28;20684;-91
2020/12/17 09:42:25;;;;;;;10.37;6.63;;;8.80;99.90;;;;;;5018196;28;20229;-92
2020/12/17 09:44:51;;;;;;;8.83;6.30;;;8.70;99.90;;;;;;5003600;28;20230;-90
2020/12/17 09:47:33;;;;;;;10.57;7.00;;;8.70;99.90;;;;;;5021751;28;20214;-91
2020/12/17 09:50:14;;;;;;;8.13;6.20;;;8.70;99.90;;;;;;5021466;28;20278;-91
2020/12/17 09:52:41;;;;;;;11.43;7.27;;;8.60;99.90;;;;;;5036118;28;20229;-91
2020/12/17 09:55:07;;;;;;;12.03;7.70;;;8.60;99.90;;;;;;5003140;28;20695;-92
2020/12/17 09:57:44;;;;;;;13.03;6.70;;;8.60;99.90;;;;;;5019527;28;20217;-91
2020/12/17 10:00:15;;;;;;;13.13;7.43;;;8.80;99.90;;;;;;5019587;28;20214;-92
2020/12/17 10:02:41;;;;;;;9.13;7.07;;;8.80;99.90;;;;;;5016515;28;20186;-91
2020/12/17 10:05:09;;;;;;;10.23;8.00;;;8.80;99.90;;;;;;4978548;28;20195;-90
2020/12/17 10:07:35;;;;;;;9.63;6.73;;;8.80;99.90;;;;;;4967577;28;20680;-92
2020/12/17 10:10:01;;;;;;;9.93;7.63;;;8.90;99.90;;;;;;4983007;28;20221;-92
2020/12/17 10:12:27;;;;;;;15.27;7.17;;;8.90;99.90;;;;;;4967588;28;20219;-92
2020/12/17 10:14:53;;;;;;;6.73;5.00;;;8.90;99.90;;;;;;4983252;28;20219;-91
2020/12/17 10:17:19;;;;;;;8.57;6.57;;;8.90;99.90;;;;;;4969887;28;20663;-91
2020/12/17 10:19:44;;;;;;;7.97;6.33;;;8.90;99.90;;;;;;4967254;28;20734;-91
2020/12/17 10:22:10;;;;;;;11.30;7.23;;;8.90;99.90;;;;;;4983681;28;20235;-92
2020/12/17 10:24:36;;;;;;;9.07;5.80;;;9.00;99.90;;;;;;4980871;28;20227;-91
2020/12/17 10:27:02;;;;;;;11.17;7.13;;;9.00;99.90;;;;;;4999126;28;20219;-91
2020/12/17 10:29:29;;;;;;;9.77;7.00;;;9.10;99.90;;;;;;4983043;28;20199;-89
2020/12/17 10:31:55;;;;;;;11.00;8.23;;;9.20;99.90;;;;;;4984242;28;20187;-92
2020/12/17 10:34:23;;;;;;;5.13;4.53;;;9.30;99.90;;;;;;4966086;28;20226;-92
2020/12/17 10:36:49;;;;;;;8.13;5.20;;;9.40;99.90;;;;;;4979204;28;20227;-92
2020/12/17 10:39:15;;;;;;;9.00;6.57;;;9.40;99.90;;;;;;4974603;28;20210;-92
2020/12/17 10:41:41;;;;;;;8.33;6.40;;;9.40;99.90;;;;;;4966433;28;20219;-90
2020/12/17 10:44:08;;;;;;;7.83;6.47;;;9.40;99.90;;;;;;4985204;28;20666;-92
2020/12/17 10:46:36;;;;;;;8.33;6.27;;;9.30;99.90;;;;;;5000577;28;20300;-93
2020/12/17 10:49:03;;;;;;;7.97;4.83;;;9.30;99.90;;;;;;4981485;28;20222;-92
2020/12/17 10:51:29;;;;;;;8.07;6.23;;;9.20;99.90;;;;;;5000655;28;20692;-91
2020/12/17 10:53:55;;;;;;;7.63;5.53;;;9.30;99.90;;;;;;4952432;28;20324;-93
2020/12/17 10:56:21;;;;;;;12.93;7.53;;;9.40;99.90;;;;;;4984649;28;20274;-93
2020/12/17 10:58:50;;;;;;;9.77;6.03;;;9.30;99.90;;;;;;4982821;28;20577;-93
2020/12/17 11:01:20;;;;;;;8.37;6.03;;;9.30;99.90;;;;;;4982304;28;20215;-93
2020/12/17 11:03:45;;;;;;;8.93;5.23;;;9.30;99.90;;;;;;4999625;28;20234;-93
2020/12/17 11:06:16;;;;;;;10.03;6.17;;;9.30;99.90;;;;;;5018439;28;20230;-94
2020/12/17 11:08:42;;;;;;;7.03;5.27;;;9.30;99.90;;;;;;5002445;28;20191;-94
2020/12/17 11:11:08;;;;;;;7.97;5.30;;;9.30;99.90;;;;;;5003830;28;20182;-92
2020/12/17 11:13:34;;;;;;;9.57;6.10;;;9.30;99.90;;;;;;5018095;28;20229;-93
2020/12/17 11:15:59;;;;;;;10.00;6.80;;;9.30;99.90;;;;;;5016741;28;21012;-93
2020/12/17 11:18:25;;;;;;;6.60;5.83;;;9.40;99.90;;;;;;5014236;28;20239;-93
2020/12/17 11:20:51;;;;;;;9.27;5.43;;;9.60;99.90;;;;;;5013349;28;20341;-92
2020/12/17 11:23:17;;;;;;;8.50;6.67;;;9.60;99.90;;;;;;4997384;28;20225;-91
2020/12/17 11:25:42;;;;;;;13.70;6.43;;;9.80;99.90;;;;;;4999918;28;20241;-91
2020/12/17 11:28:08;;;;;;;8.33;7.37;;;9.70;99.90;;;;;;4998631;28;20722;-92
2020/12/17 11:30:35;;;;;;;7.47;4.97;;;9.60;99.90;;;;;;5005838;28;20645;-92
2020/12/17 11:33:02;;;;;;;10.73;7.10;;;9.60;99.90;;;;;;5010001;28;20231;-92
2020/12/17 11:35:28;;;;;;;9.67;6.93;;;9.60;99.90;;;;;;4997399;28;20223;-87
2020/12/17 11:37:57;;;;;;;11.20;7.63;;;9.60;99.90;;;;;;5015998;28;20284;-93
2020/12/17 11:40:24;;;;;;;8.37;5.70;;;9.60;99.90;;;;;;5014366;28;20214;-93
2020/12/17 11:42:52;;;;;;;14.23;7.27;;;9.60;99.90;;;;;;5015465;28;20636;-92
2020/12/17 11:45:18;;;;;;;9.63;6.47;;;9.50;99.90;;;;;;5000090;28;20222;-92
2020/12/17 11:47:44;;;;;;;10.30;7.53;;;9.60;99.90;;;;;;5015638;28;21172;-94
2020/12/17 11:50:10;;;;;;;12.70;8.87;;;9.60;99.90;;;;;;5018916;28;20179;-91
2020/12/17 11:52:36;;;;;;;15.83;7.87;;;9.60;99.90;;;;;;5017674;28;20225;-93
2020/12/17 11:55:05;;;;;;;11.93;7.47;;;9.60;99.90;;;;;;5016232;28;20221;-93
2020/12/17 11:57:31;;;;;;;8.00;6.90;;;9.60;99.90;;;;;;5015967;28;20313;-92
2020/12/17 11:59:57;;;;;;;8.33;6.23;;;9.70;99.90;;;;;;5015520;28;21196;-92
2020/12/17 12:02:23;;;;;;;9.10;6.87;;;9.80;99.90;;;;;;5020623;28;20246;-92
2020/12/17 12:04:49;;;;;;;8.13;6.17;;;9.80;99.90;;;;;;5002617;28;20230;-93
2020/12/17 12:07:14;;;;;;;10.77;7.17;;;9.80;99.90;;;;;;5020617;28;20598;-90
2020/12/17 12:09:40;;;;;;;6.20;5.13;;;9.80;99.90;;;;;;5018538;28;20699;-91
2020/12/17 12:12:06;;;;;;;8.37;6.70;;;9.90;99.90;;;;;;5018912;28;20223;-92
2020/12/17 12:14:32;;;;;;;9.97;5.67;;;9.90;99.90;;;;;;5004501;28;20260;-92
2020/12/17 12:16:58;;;;;;;8.43;5.67;;;9.90;99.90;;;;;;5023167;28;20237;-92
2020/12/17 12:19:24;;;;;;;9.50;6.27;;;9.90;99.90;;;;;;5037361;28;20698;-90
2020/12/17 12:21:51;;;;;;;7.63;4.80;;;10.00;99.90;;;;;;5021686;28;20218;-91
2020/12/17 12:24:18;;;;;;;9.77;5.40;;;10.10;99.90;;;;;;4993234;28;20230;-91
2020/12/17 12:26:44;;;;;;;8.63;4.70;;;10.20;99.90;;;;;;5020440;28;20191;-91
2020/12/17 12:29:10;;;;;;;16.97;3.53;;;10.30;99.90;;;;;;5021961;28;20189;-93
2020/12/17 12:31:36;;;;;;;9.13;3.20;;;10.50;99.90;;;;;;5021529;28;20231;-92
2020/12/17 12:34:03;;;;;;;4.70;3.00;;;10.60;99.90;;;;;;5021171;28;20550;-93
2020/12/17 12:36:30;;;;;;;4.97;3.10;;;10.60;99.90;;;;;;5020544;28;20248;-92
2020/12/17 12:38:56;;;;;;;10.00;3.13;;;10.50;99.90;;;;;;5020837;28;20299;-92
2020/12/17 12:41:21;;;;;;;3.00;2.70;;;10.90;99.90;;;;;;5022048;28;20636;-93
2020/12/17 12:43:48;;;;;;;5.33;2.33;;;11.50;99.90;;;;;;5003504;28;20237;-93
2020/12/17 12:46:20;;;;;;;6.03;3.03;;;12.30;99.90;;;;;;5020688;28;20211;-93
2020/12/17 12:48:46;;;;;;;3.27;1.93;;;12.50;99.90;;;;;;5019586;28;20582;-92
2020/12/17 12:51:13;;;;;;;6.60;1.83;;;12.50;99.90;;;;;;5019258;28;20218;-95
2020/12/17 12:53:39;;;;;;;7.13;2.40;;;12.20;99.90;;;;;;5016947;28;20197;-94
2020/12/17 12:56:05;;;;;;;7.37;3.30;;;11.50;99.90;;;;;;5035555;28;20186;-91
2020/12/17 12:58:31;;;;;;;7.37;2.43;;;11.30;99.90;;;;;;5019914;28;20218;-91